BAW843 EPWA-EGLL
Flight info
| Callsign | BAW843 |
|---|---|
| Flight time | N/A |
| Altitude | 36000 |
| Route | LOLSI DCT DIBLO DCT INDIG DCT SUBIX DCT HLZ DCT ABNED L980 LOGAN |
| Aircraft | A320/M-SDE3FGIJ1KRWXY/SB1 |
Departure
| Time | 2026-05-01 14:23 |
|---|---|
| Airport | Warsaw Chopin Airport (EPWA) |
Arrival
| Time | N/A |
|---|---|
| Airport | London Heathrow Airport (EGLL) |
| Time | Latitude | Longitude | Altitude | Speed | Heading |
|---|---|---|---|---|---|
| 2026-05-01 13:52 | 52.17508 | 20.96929 | 350 ft | 0 kts | 242° |
| 2026-05-01 14:12 | 52.17511 | 20.96938 | 360 ft | 4 kts | 243° |
| 2026-05-01 14:12 | 52.17521 | 20.96978 | 358 ft | 4 kts | 256° |
| 2026-05-01 14:13 | 52.17523 | 20.97019 | 357 ft | 4 kts | 289° |
| 2026-05-01 14:13 | 52.17517 | 20.97040 | 356 ft | 3 kts | 329° |
| 2026-05-01 14:13 | 52.17510 | 20.97046 | 357 ft | 0 kts | 333° |
| 2026-05-01 14:16 | 52.17518 | 20.97040 | 356 ft | 3 kts | 333° |
| 2026-05-01 14:16 | 52.17542 | 20.97019 | 356 ft | 5 kts | 332° |
| 2026-05-01 14:16 | 52.17582 | 20.96984 | 355 ft | 8 kts | 332° |
| 2026-05-01 14:16 | 52.17617 | 20.96913 | 353 ft | 9 kts | 274° |
| 2026-05-01 14:17 | 52.17588 | 20.96805 | 358 ft | 12 kts | 239° |
| 2026-05-01 14:17 | 52.17543 | 20.96682 | 352 ft | 14 kts | 239° |
| 2026-05-01 14:17 | 52.17475 | 20.96574 | 353 ft | 15 kts | 183° |
| 2026-05-01 14:17 | 52.17377 | 20.96646 | 354 ft | 16 kts | 152° |
| 2026-05-01 14:18 | 52.17273 | 20.96736 | 354 ft | 18 kts | 151° |
| 2026-05-01 14:18 | 52.17200 | 20.96801 | 353 ft | 19 kts | 152° |
| 2026-05-01 14:18 | 52.17082 | 20.96905 | 354 ft | 20 kts | 152° |
| 2026-05-01 14:18 | 52.16955 | 20.97015 | 352 ft | 21 kts | 152° |
| 2026-05-01 14:19 | 52.16820 | 20.97132 | 356 ft | 21 kts | 152° |
| 2026-05-01 14:19 | 52.16694 | 20.97241 | 355 ft | 19 kts | 151° |
| 2026-05-01 14:19 | 52.16599 | 20.97325 | 359 ft | 14 kts | 148° |
| 2026-05-01 14:19 | 52.16546 | 20.97460 | 353 ft | 15 kts | 114° |
| 2026-05-01 14:20 | 52.16503 | 20.97624 | 350 ft | 16 kts | 114° |
| 2026-05-01 14:20 | 52.16403 | 20.97989 | 350 ft | 19 kts | 110° |
| 2026-05-01 14:20 | 52.16347 | 20.98192 | 351 ft | 20 kts | 115° |
| 2026-05-01 14:21 | 52.16291 | 20.98392 | 357 ft | 15 kts | 114° |
| 2026-05-01 14:21 | 52.16227 | 20.98455 | 350 ft | 12 kts | 198° |
| 2026-05-01 14:21 | 52.16151 | 20.98398 | 352 ft | 12 kts | 203° |
| 2026-05-01 14:22 | 52.16131 | 20.98296 | 355 ft | 0 kts | 295° |
| 2026-05-01 14:22 | 52.16131 | 20.98295 | 355 ft | 0 kts | 295° |
| 2026-05-01 14:22 | 52.16159 | 20.98197 | 358 ft | 35 kts | 295° |
| 2026-05-01 14:22 | 52.16356 | 20.97490 | 350 ft | 98 kts | 294° |
| 2026-05-01 14:23 | 52.16712 | 20.96223 | 353 ft | 145 kts | 295° |
| 2026-05-01 14:23 | 52.17156 | 20.94651 | 809 ft | 150 kts | 296° |
| 2026-05-01 14:23 | 52.17581 | 20.93096 | 1440 ft | 153 kts | 298° |
| 2026-05-01 14:23 | 52.18019 | 20.91459 | 1952 ft | 161 kts | 296° |
| 2026-05-01 14:24 | 52.18231 | 20.89548 | 2238 ft | 186 kts | 275° |
| 2026-05-01 14:24 | 52.18184 | 20.87310 | 2512 ft | 210 kts | 269° |
| 2026-05-01 14:24 | 52.18077 | 20.84801 | 2846 ft | 234 kts | 268° |
| 2026-05-01 14:24 | 52.18181 | 20.82046 | 3248 ft | 253 kts | 284° |
| 2026-05-01 14:25 | 52.18550 | 20.79197 | 4039 ft | 259 kts | 285° |
| 2026-05-01 14:25 | 52.18943 | 20.76313 | 4944 ft | 262 kts | 286° |
| 2026-05-01 14:25 | 52.19344 | 20.73432 | 5797 ft | 266 kts | 286° |
| 2026-05-01 14:25 | 52.19575 | 20.70405 | 6582 ft | 277 kts | 269° |
| 2026-05-01 14:26 | 52.19117 | 20.67301 | 7298 ft | 287 kts | 253° |
| 2026-05-01 14:26 | 52.17731 | 20.61055 | 8797 ft | 297 kts | 253° |
| 2026-05-01 14:26 | 52.17015 | 20.57866 | 9523 ft | 303 kts | 254° |
| 2026-05-01 14:27 | 52.16288 | 20.54612 | 10249 ft | 308 kts | 254° |
| 2026-05-01 14:27 | 52.15634 | 20.51237 | 10686 ft | 320 kts | 263° |
| 2026-05-01 14:27 | 52.15388 | 20.47546 | 10863 ft | 337 kts | 275° |
| 2026-05-01 14:28 | 52.15744 | 20.39686 | 11674 ft | 358 kts | 279° |
| 2026-05-01 14:28 | 52.15919 | 20.35608 | 12281 ft | 363 kts | 279° |
| 2026-05-01 14:28 | 52.16079 | 20.31487 | 12896 ft | 367 kts | 278° |
| 2026-05-01 14:28 | 52.16236 | 20.27303 | 13514 ft | 372 kts | 278° |
| 2026-05-01 14:29 | 52.16392 | 20.23077 | 14115 ft | 376 kts | 279° |
| 2026-05-01 14:29 | 52.16554 | 20.18804 | 14659 ft | 380 kts | 279° |
| 2026-05-01 14:30 | 52.17059 | 20.05743 | 16261 ft | 390 kts | 279° |
| 2026-05-01 14:30 | 52.17228 | 20.01315 | 16787 ft | 393 kts | 279° |
| 2026-05-01 14:30 | 52.17396 | 19.96848 | 17324 ft | 396 kts | 279° |
| 2026-05-01 14:31 | 52.17686 | 19.87792 | 18382 ft | 406 kts | 274° |
| 2026-05-01 14:31 | 52.17407 | 19.83160 | 18870 ft | 415 kts | 266° |
| 2026-05-01 14:31 | 52.16982 | 19.78490 | 19355 ft | 418 kts | 266° |
| 2026-05-01 14:31 | 52.16555 | 19.73797 | 19853 ft | 420 kts | 266° |
| 2026-05-01 14:32 | 52.16127 | 19.69073 | 20347 ft | 423 kts | 266° |
| 2026-05-01 14:32 | 52.15706 | 19.64374 | 20833 ft | 426 kts | 266° |
| 2026-05-01 14:32 | 52.15280 | 19.59589 | 21297 ft | 428 kts | 266° |
| 2026-05-01 14:32 | 52.14850 | 19.54778 | 21750 ft | 431 kts | 266° |
| 2026-05-01 14:33 | 52.14412 | 19.49925 | 22193 ft | 434 kts | 266° |
| 2026-05-01 14:33 | 52.13969 | 19.45056 | 22623 ft | 436 kts | 266° |
| 2026-05-01 14:33 | 52.13515 | 19.40155 | 23067 ft | 439 kts | 266° |
| 2026-05-01 14:33 | 52.13054 | 19.35222 | 23497 ft | 441 kts | 265° |
| 2026-05-01 14:34 | 52.12590 | 19.30274 | 23914 ft | 444 kts | 265° |
| 2026-05-01 14:34 | 52.12123 | 19.25287 | 24273 ft | 447 kts | 265° |
| 2026-05-01 14:34 | 52.11651 | 19.20274 | 24632 ft | 449 kts | 265° |
| 2026-05-01 14:34 | 52.11182 | 19.15310 | 24975 ft | 451 kts | 265° |
| 2026-05-01 14:35 | 52.10703 | 19.10255 | 25312 ft | 454 kts | 265° |
| 2026-05-01 14:35 | 52.10221 | 19.05171 | 25653 ft | 456 kts | 265° |
| 2026-05-01 14:35 | 52.09733 | 19.00073 | 25991 ft | 458 kts | 265° |
| 2026-05-01 14:35 | 52.09237 | 18.94928 | 26305 ft | 460 kts | 265° |
| 2026-05-01 14:36 | 52.08738 | 18.89790 | 26663 ft | 462 kts | 265° |
| 2026-05-01 14:36 | 52.08234 | 18.84620 | 27006 ft | 464 kts | 264° |
| 2026-05-01 14:36 | 52.07726 | 18.79435 | 26980 ft | 462 kts | 264° |
| 2026-05-01 14:36 | 52.07216 | 18.74260 | 26903 ft | 461 kts | 264° |
| 2026-05-01 14:37 | 52.06706 | 18.69099 | 27173 ft | 464 kts | 264° |
| 2026-05-01 14:37 | 52.06195 | 18.63932 | 27508 ft | 467 kts | 264° |
| 2026-05-01 14:37 | 52.05676 | 18.58711 | 27854 ft | 469 kts | 264° |
| 2026-05-01 14:37 | 52.05152 | 18.53459 | 28194 ft | 472 kts | 264° |
| 2026-05-01 14:38 | 52.04626 | 18.48192 | 28528 ft | 474 kts | 264° |
| 2026-05-01 14:38 | 52.04096 | 18.42892 | 28821 ft | 476 kts | 264° |
| 2026-05-01 14:38 | 52.03561 | 18.37598 | 29285 ft | 474 kts | 264° |
| 2026-05-01 14:38 | 52.03021 | 18.32323 | 29805 ft | 472 kts | 264° |
| 2026-05-01 14:39 | 52.02477 | 18.27071 | 30290 ft | 471 kts | 264° |
| 2026-05-01 14:39 | 52.01936 | 18.21835 | 30713 ft | 470 kts | 264° |
| 2026-05-01 14:39 | 52.01397 | 18.16615 | 31117 ft | 469 kts | 264° |
| 2026-05-01 14:39 | 52.00858 | 18.11399 | 31542 ft | 468 kts | 264° |
| 2026-05-01 14:40 | 52.00327 | 18.06263 | 31938 ft | 466 kts | 265° |
| 2026-05-01 14:40 | 52.00042 | 18.01048 | 32345 ft | 460 kts | 274° |
| 2026-05-01 14:40 | 52.00236 | 17.95899 | 32758 ft | 453 kts | 283° |
| 2026-05-01 14:40 | 52.00829 | 17.90913 | 33178 ft | 449 kts | 287° |
| 2026-05-01 14:41 | 52.01471 | 17.85955 | 33573 ft | 448 kts | 287° |
| 2026-05-01 14:41 | 52.02094 | 17.81016 | 34024 ft | 446 kts | 287° |
| 2026-05-01 14:41 | 52.02707 | 17.76087 | 34432 ft | 444 kts | 287° |
| 2026-05-01 14:41 | 52.03316 | 17.71182 | 34779 ft | 443 kts | 287° |
| 2026-05-01 14:42 | 52.03925 | 17.66273 | 35121 ft | 442 kts | 287° |
| 2026-05-01 14:42 | 52.04529 | 17.61388 | 35454 ft | 441 kts | 287° |
| 2026-05-01 14:42 | 52.05132 | 17.56517 | 35776 ft | 439 kts | 287° |
| 2026-05-01 14:42 | 52.05734 | 17.51658 | 36083 ft | 438 kts | 286° |
| 2026-05-01 14:43 | 52.06334 | 17.46807 | 36284 ft | 438 kts | 286° |
| 2026-05-01 14:43 | 52.07544 | 17.36974 | 36321 ft | 447 kts | 286° |
| 2026-05-01 14:44 | 52.08743 | 17.27078 | 36322 ft | 449 kts | 285° |
| 2026-05-01 14:44 | 52.10542 | 17.12107 | 36318 ft | 450 kts | 285° |
| 2026-05-01 14:45 | 52.12325 | 16.97125 | 36323 ft | 450 kts | 285° |
| 2026-05-01 14:46 | 52.13504 | 16.87112 | 36315 ft | 450 kts | 285° |
| 2026-05-01 14:46 | 52.15260 | 16.72094 | 36333 ft | 450 kts | 285° |
| 2026-05-01 14:47 | 52.16413 | 16.62076 | 36336 ft | 450 kts | 285° |
| 2026-05-01 14:48 | 52.18132 | 16.47026 | 36346 ft | 450 kts | 285° |
| 2026-05-01 14:48 | 52.19822 | 16.32055 | 36339 ft | 449 kts | 284° |
| 2026-05-01 14:49 | 52.22059 | 16.12022 | 36349 ft | 449 kts | 284° |
| 2026-05-01 14:50 | 52.24260 | 15.91979 | 36358 ft | 448 kts | 283° |
| 2026-05-01 14:51 | 52.25881 | 15.76946 | 36371 ft | 448 kts | 283° |
| 2026-05-01 14:52 | 52.27483 | 15.61893 | 36368 ft | 448 kts | 283° |
| 2026-05-01 14:53 | 52.29077 | 15.46852 | 36345 ft | 448 kts | 283° |
| 2026-05-01 14:53 | 52.30123 | 15.36887 | 36354 ft | 448 kts | 283° |
| 2026-05-01 14:54 | 52.31156 | 15.26855 | 36353 ft | 448 kts | 282° |
| 2026-05-01 14:54 | 52.32181 | 15.16812 | 36360 ft | 448 kts | 282° |
| 2026-05-01 14:55 | 52.33198 | 15.06775 | 36368 ft | 448 kts | 282° |
| 2026-05-01 14:55 | 52.34210 | 14.96718 | 36360 ft | 448 kts | 282° |
| 2026-05-01 14:56 | 52.35216 | 14.86669 | 36367 ft | 448 kts | 282° |
| 2026-05-01 14:56 | 52.36211 | 14.76610 | 36363 ft | 447 kts | 282° |
| 2026-05-01 14:57 | 52.37207 | 14.66545 | 36360 ft | 447 kts | 282° |
| 2026-05-01 14:57 | 52.38057 | 14.51395 | 36374 ft | 450 kts | 274° |
| 2026-05-01 14:58 | 52.38161 | 14.41144 | 36374 ft | 450 kts | 274° |
| 2026-05-01 14:58 | 52.38269 | 14.30879 | 36369 ft | 450 kts | 274° |
| 2026-05-01 14:59 | 52.38368 | 14.20617 | 36371 ft | 450 kts | 274° |
| 2026-05-01 14:59 | 52.38446 | 14.10361 | 36370 ft | 451 kts | 273° |
| 2026-05-01 15:00 | 52.38539 | 13.95033 | 36364 ft | 451 kts | 273° |
| 2026-05-01 15:01 | 52.38600 | 13.84768 | 36370 ft | 451 kts | 273° |
| 2026-05-01 15:01 | 52.38663 | 13.74501 | 36374 ft | 451 kts | 273° |
| 2026-05-01 15:02 | 52.38713 | 13.64237 | 36370 ft | 451 kts | 272° |
| 2026-05-01 15:02 | 52.38744 | 13.53960 | 36373 ft | 451 kts | 272° |
| 2026-05-01 15:03 | 52.38759 | 13.43692 | 36351 ft | 451 kts | 272° |
| 2026-05-01 15:03 | 52.38774 | 13.33444 | 36369 ft | 451 kts | 272° |
| 2026-05-01 15:04 | 52.38780 | 13.23167 | 36370 ft | 451 kts | 272° |
| 2026-05-01 15:04 | 52.38779 | 13.12966 | 36374 ft | 451 kts | 272° |
| 2026-05-01 15:05 | 52.38770 | 13.02698 | 36379 ft | 451 kts | 272° |
| 2026-05-01 15:05 | 52.38756 | 12.92431 | 36372 ft | 451 kts | 271° |
| 2026-05-01 15:06 | 52.38724 | 12.82158 | 36377 ft | 451 kts | 271° |
| 2026-05-01 15:06 | 52.38681 | 12.71897 | 36383 ft | 450 kts | 271° |
| 2026-05-01 15:07 | 52.38646 | 12.63377 | 36383 ft | 450 kts | 271° |
| 2026-05-01 15:07 | 52.38584 | 12.51461 | 36388 ft | 450 kts | 271° |
| 2026-05-01 15:08 | 52.38520 | 12.41212 | 36385 ft | 450 kts | 270° |
| 2026-05-01 15:08 | 52.38463 | 12.32635 | 36391 ft | 450 kts | 270° |
| 2026-05-01 15:09 | 52.38385 | 12.22400 | 36390 ft | 450 kts | 270° |
| 2026-05-01 15:09 | 52.38289 | 12.12164 | 36386 ft | 449 kts | 270° |
| 2026-05-01 15:10 | 52.38193 | 12.01943 | 36388 ft | 449 kts | 270° |
| 2026-05-01 15:10 | 52.38038 | 11.86615 | 36389 ft | 449 kts | 270° |
| 2026-05-01 15:11 | 52.37851 | 11.71349 | 36387 ft | 448 kts | 270° |
| 2026-05-01 15:12 | 52.37715 | 11.61148 | 36386 ft | 448 kts | 269° |
| 2026-05-01 15:12 | 52.37498 | 11.45847 | 36378 ft | 448 kts | 269° |
| 2026-05-01 15:14 | 52.37102 | 11.20473 | 36377 ft | 447 kts | 269° |
| 2026-05-01 15:14 | 52.36839 | 11.05210 | 36376 ft | 447 kts | 269° |
| 2026-05-01 15:15 | 52.36448 | 10.84894 | 36375 ft | 446 kts | 268° |
| 2026-05-01 15:16 | 52.35860 | 10.64669 | 36376 ft | 444 kts | 266° |
| 2026-05-01 15:18 | 52.34882 | 10.39478 | 36374 ft | 443 kts | 266° |
| 2026-05-01 15:19 | 52.34107 | 10.19393 | 36364 ft | 442 kts | 266° |
| 2026-05-01 15:19 | 52.33500 | 10.04394 | 36349 ft | 442 kts | 266° |
| 2026-05-01 15:20 | 52.32866 | 9.89362 | 36344 ft | 442 kts | 266° |
| 2026-05-01 15:21 | 52.32439 | 9.79340 | 36351 ft | 441 kts | 266° |
| 2026-05-01 15:21 | 52.32010 | 9.69337 | 36348 ft | 441 kts | 266° |
| 2026-05-01 15:22 | 52.31342 | 9.54353 | 36347 ft | 440 kts | 266° |
| 2026-05-01 15:22 | 52.30885 | 9.44435 | 36344 ft | 440 kts | 266° |
| 2026-05-01 15:23 | 52.30416 | 9.34470 | 36342 ft | 440 kts | 266° |
| 2026-05-01 15:23 | 52.29947 | 9.24508 | 36338 ft | 440 kts | 266° |
| 2026-05-01 15:24 | 52.29465 | 9.14552 | 36338 ft | 439 kts | 266° |
| 2026-05-01 15:24 | 52.28978 | 9.04603 | 36335 ft | 439 kts | 266° |
| 2026-05-01 15:25 | 52.28482 | 8.94646 | 36337 ft | 439 kts | 265° |
| 2026-05-01 15:25 | 52.27972 | 8.84697 | 36337 ft | 440 kts | 266° |
| 2026-05-01 15:26 | 52.27456 | 8.74751 | 36341 ft | 439 kts | 266° |
| 2026-05-01 15:26 | 52.26937 | 8.64831 | 36335 ft | 439 kts | 266° |
| 2026-05-01 15:27 | 52.26413 | 8.54893 | 36332 ft | 438 kts | 266° |
| 2026-05-01 15:28 | 52.25596 | 8.40023 | 36318 ft | 438 kts | 266° |
| 2026-05-01 15:28 | 52.25049 | 8.30200 | 36317 ft | 437 kts | 265° |
| 2026-05-01 15:29 | 52.24221 | 8.15366 | 36307 ft | 437 kts | 265° |
| 2026-05-01 15:30 | 52.23064 | 7.95630 | 36296 ft | 437 kts | 265° |
| 2026-05-01 15:31 | 52.21905 | 7.76041 | 36528 ft | 426 kts | 265° |
| 2026-05-01 15:31 | 52.21325 | 7.66331 | 36266 ft | 432 kts | 265° |
| 2026-05-01 15:32 | 52.20084 | 7.46748 | 36274 ft | 435 kts | 265° |
| 2026-05-01 15:34 | 52.18187 | 7.17432 | 36273 ft | 435 kts | 265° |